createdAt,value
2019-05-03T00:02:28.656Z,13.00
2019-05-03T00:05:13.061Z,13.00
2019-05-03T00:07:42.462Z,13.00
2019-05-03T00:10:12.856Z,13.00
2019-05-03T00:12:42.321Z,13.10
2019-05-03T00:15:32.322Z,13.10
2019-05-03T00:18:02.366Z,13.10
2019-05-03T00:20:32.687Z,13.10
2019-05-03T00:23:02.916Z,13.20
2019-05-03T00:25:32.709Z,13.20
2019-05-03T00:28:02.210Z,13.30
2019-05-03T00:30:32.039Z,13.30
2019-05-03T00:33:02.849Z,13.30
2019-05-03T00:35:53.871Z,13.40
2019-05-03T00:38:23.264Z,13.40
2019-05-03T00:40:53.037Z,13.50
2019-05-03T00:43:22.417Z,13.50
2019-05-03T00:45:51.809Z,13.60
2019-05-03T00:48:21.948Z,13.60
2019-05-03T00:50:51.844Z,13.70
2019-05-03T00:53:22.421Z,13.70
2019-05-03T00:55:52.498Z,13.70
2019-05-03T00:58:22.517Z,13.70
2019-05-03T01:00:52.542Z,13.70
2019-05-03T01:03:22.635Z,13.70
2019-05-03T01:05:52.976Z,13.70
2019-05-03T01:08:22.686Z,13.70
2019-05-03T01:10:52.006Z,13.70
2019-05-03T01:13:21.833Z,13.70
2019-05-03T01:16:02.934Z,13.70
2019-05-03T01:18:35.836Z,13.70
2019-05-03T01:21:05.167Z,13.70
2019-05-03T01:23:34.546Z,13.70
2019-05-03T01:26:03.727Z,13.70
2019-05-03T01:28:33.100Z,13.70
2019-05-03T01:31:02.690Z,13.60
2019-05-03T01:33:32.247Z,13.60
2019-05-03T01:36:02.669Z,13.50
2019-05-03T01:38:32.340Z,13.60
2019-05-03T01:41:01.880Z,13.60
2019-05-03T01:43:31.905Z,13.60
2019-05-03T01:46:02.704Z,13.50
2019-05-03T01:48:54.034Z,13.50
2019-05-03T01:52:02.212Z,13.50
2019-05-03T01:54:32.126Z,13.50
2019-05-03T01:57:02.398Z,13.50
2019-05-03T01:59:32.143Z,13.50
2019-05-03T02:02:28.649Z,13.50
2019-05-03T02:05:35.011Z,13.50
2019-05-03T02:08:04.419Z,13.50
2019-05-03T02:10:33.772Z,13.50
2019-05-03T02:13:03.062Z,13.50
2019-05-03T02:15:32.720Z,13.40
2019-05-03T02:18:02.643Z,13.40
2019-05-03T02:20:32.658Z,13.40
2019-05-03T02:23:02.769Z,13.40
2019-05-03T02:25:32.437Z,13.40
2019-05-03T02:28:02.036Z,13.40
2019-05-03T02:30:33.172Z,13.40
2019-05-03T02:33:04.109Z,13.40
2019-05-03T02:35:33.800Z,13.40
2019-05-03T02:38:03.741Z,13.40
2019-05-03T02:40:33.928Z,13.40
2019-05-03T02:43:18.311Z,13.30
2019-05-03T02:46:19.221Z,13.10
2019-05-03T02:48:55.816Z,12.90
2019-05-03T02:51:26.042Z,12.60
2019-05-03T02:53:57.180Z,12.50
2019-05-03T02:56:26.833Z,12.40
2019-05-03T02:58:56.286Z,12.30
2019-05-03T03:01:26.573Z,12.20
2019-05-03T03:03:57.654Z,12.20
2019-05-03T03:06:28.623Z,12.10
2019-05-03T03:08:59.120Z,12.10
2019-05-03T03:11:35.409Z,12.10
2019-05-03T03:14:05.737Z,12.10
2019-05-03T03:16:36.492Z,12.00
2019-05-03T03:19:06.929Z,12.00
2019-05-03T03:21:41.556Z,12.00
2019-05-03T03:24:17.092Z,12.00
2019-05-03T03:26:49.902Z,12.00
2019-05-03T03:29:24.965Z,11.90
2019-05-03T03:32:20.688Z,11.90
2019-05-03T03:35:03.462Z,11.80
2019-05-03T03:37:29.986Z,11.80
2019-05-03T03:39:59.625Z,11.80
2019-05-03T03:42:31.225Z,11.80
2019-05-03T03:45:02.346Z,11.70
2019-05-03T03:47:35.765Z,11.70
2019-05-03T03:50:07.959Z,11.60
2019-05-03T03:52:40.477Z,11.60
2019-05-03T03:55:18.823Z,11.50
2019-05-03T03:57:48.248Z,11.50
2019-05-03T04:00:19.321Z,11.40
2019-05-03T04:02:48.671Z,11.40
2019-05-03T04:05:17.985Z,11.40
2019-05-03T04:07:50.761Z,11.30
2019-05-03T04:10:20.041Z,11.30
2019-05-03T04:12:49.576Z,11.30
2019-05-03T04:15:37.111Z,11.30
2019-05-03T04:18:20.690Z,11.30
2019-05-03T04:20:50.161Z,11.30
2019-05-03T04:23:20.313Z,11.20
2019-05-03T04:25:49.951Z,11.20
2019-05-03T04:28:20.470Z,11.20
2019-05-03T04:30:49.837Z,11.10
2019-05-03T04:33:19.203Z,11.10
2019-05-03T04:35:50.683Z,11.10
2019-05-03T04:38:19.972Z,11.00
2019-05-03T04:40:49.283Z,11.00
2019-05-03T04:43:18.679Z,11.00
2019-05-03T04:46:06.243Z,11.00
2019-05-03T04:48:35.779Z,10.90
2019-05-03T04:51:08.348Z,10.90
2019-05-03T04:53:41.339Z,10.90
2019-05-03T04:56:10.615Z,10.90
2019-05-03T04:58:40.042Z,10.90
2019-05-03T05:01:09.403Z,10.90
2019-05-03T05:03:41.853Z,10.90
2019-05-03T05:06:15.416Z,11.00
2019-05-03T05:08:46.027Z,11.00
2019-05-03T05:11:15.841Z,11.00
2019-05-03T05:13:45.807Z,11.10
2019-05-03T05:16:16.026Z,11.10
2019-05-03T05:18:50.449Z,11.10
2019-05-03T05:21:29.805Z,11.00
2019-05-03T05:24:05.255Z,11.10
2019-05-03T05:26:56.135Z,11.10
2019-05-03T05:29:27.683Z,11.10
2019-05-03T05:31:57.331Z,11.00
2019-05-03T05:34:26.508Z,11.10
2019-05-03T05:36:55.793Z,11.10
2019-05-03T05:39:25.234Z,11.20
2019-05-03T05:41:55.421Z,11.10
2019-05-03T05:44:25.193Z,11.10
2019-05-03T05:47:16.633Z,11.00
2019-05-03T05:49:54.621Z,11.00
2019-05-03T05:52:24.692Z,11.00
2019-05-03T05:55:10.008Z,11.00
2019-05-03T05:58:04.757Z,11.00
2019-05-03T06:00:33.464Z,11.00
2019-05-03T06:03:05.060Z,11.10
2019-05-03T06:05:35.573Z,11.00
2019-05-03T06:08:18.838Z,11.00
2019-05-03T06:11:20.246Z,10.90
2019-05-03T06:13:57.136Z,10.90
2019-05-03T06:16:31.970Z,10.80
2019-05-03T06:19:09.577Z,10.80
2019-05-03T06:21:57.812Z,10.90
2019-05-03T06:24:31.804Z,10.90
2019-05-03T06:27:06.043Z,10.90
2019-05-03T06:29:35.450Z,10.90
2019-05-03T06:32:30.318Z,10.90
2019-05-03T06:34:59.627Z,11.00
2019-05-03T06:37:40.457Z,10.90
2019-05-03T06:40:10.179Z,11.00
2019-05-03T06:42:51.606Z,11.10
2019-05-03T06:45:11.824Z,11.10
2019-05-03T06:47:45.926Z,11.20
2019-05-03T06:50:14.549Z,11.30
2019-05-03T06:52:44.546Z,11.30
2019-05-03T06:55:14.655Z,11.40
2019-05-03T06:57:49.598Z,11.50
2019-05-03T07:00:38.005Z,11.50
2019-05-03T07:03:15.161Z,11.50
2019-05-03T07:06:09.446Z,11.50
2019-05-03T07:08:59.344Z,11.60
2019-05-03T07:11:28.610Z,11.70
2019-05-03T07:13:57.969Z,11.80
2019-05-03T07:16:27.299Z,11.80
2019-05-03T07:18:58.571Z,11.80
2019-05-03T07:21:27.695Z,11.80
2019-05-03T07:23:57.049Z,11.80
2019-05-03T07:26:26.356Z,11.60
2019-05-03T07:28:55.611Z,11.50
2019-05-03T07:31:25.614Z,11.50
2019-05-03T07:33:55.248Z,11.40
2019-05-03T07:36:28.038Z,11.40
2019-05-03T07:38:55.708Z,11.40
2019-05-03T07:41:27.135Z,11.40
2019-05-03T07:43:56.118Z,11.50
2019-05-03T07:46:25.488Z,11.70
2019-05-03T07:48:54.898Z,11.80
2019-05-03T07:51:24.911Z,11.90
2019-05-03T07:53:55.598Z,11.90
2019-05-03T07:56:29.756Z,11.90
2019-05-03T07:59:04.165Z,11.90
2019-05-03T08:01:36.115Z,11.90
2019-05-03T08:04:06.171Z,11.90
2019-05-03T08:06:35.521Z,12.10
2019-05-03T08:09:07.520Z,12.10
2019-05-03T08:11:37.078Z,12.10
2019-05-03T08:14:07.624Z,12.20
2019-05-03T08:16:36.932Z,12.20
2019-05-03T08:19:06.410Z,12.20
2019-05-03T08:21:37.906Z,12.20
2019-05-03T08:24:07.170Z,12.10
2019-05-03T08:26:36.471Z,12.00
2019-05-03T08:29:15.294Z,12.00
2019-05-03T08:32:02.008Z,12.00
2019-05-03T08:35:08.232Z,12.20
2019-05-03T08:37:58.321Z,12.20
2019-05-03T08:40:30.988Z,12.30
2019-05-03T08:43:00.270Z,12.40
2019-05-03T08:45:29.452Z,12.40
2019-05-03T08:47:58.648Z,12.40
2019-05-03T08:50:28.207Z,12.40
2019-05-03T08:52:57.608Z,12.50
2019-05-03T08:55:26.805Z,12.50
2019-05-03T08:57:56.012Z,12.60
2019-05-03T09:00:27.591Z,12.60
2019-05-03T09:02:56.951Z,12.50
2019-05-03T09:05:26.343Z,12.50
2019-05-03T09:07:55.725Z,12.40
2019-05-03T09:10:29.895Z,12.40
2019-05-03T09:13:14.754Z,12.50
2019-05-03T09:15:44.849Z,12.70
2019-05-03T09:18:17.202Z,12.90
2019-05-03T09:20:45.217Z,12.90
2019-05-03T09:23:14.845Z,13.00
2019-05-03T09:25:45.950Z,13.10
2019-05-03T09:28:15.500Z,13.20
2019-05-03T09:30:44.899Z,13.20
2019-05-03T09:33:15.384Z,13.20
2019-05-03T09:35:45.731Z,13.20
2019-05-03T09:38:15.239Z,13.10
2019-05-03T09:40:45.414Z,12.90
2019-05-03T09:43:15.186Z,12.90
2019-05-03T09:45:45.671Z,12.80
2019-05-03T09:48:15.305Z,12.80
2019-05-03T09:50:45.177Z,12.80
2019-05-03T09:53:16.330Z,13.00
2019-05-03T09:55:45.676Z,13.20
2019-05-03T09:58:15.406Z,13.30
2019-05-03T10:00:45.330Z,13.50
2019-05-03T10:03:14.699Z,13.70
2019-05-03T10:05:45.889Z,13.90
2019-05-03T10:08:15.756Z,14.20
2019-05-03T10:11:05.307Z,14.40
2019-05-03T10:13:35.421Z,14.50
2019-05-03T10:16:06.164Z,14.40
2019-05-03T10:18:35.859Z,14.60
2019-05-03T10:21:05.547Z,14.70
2019-05-03T10:23:39.374Z,14.80
2019-05-03T10:26:09.700Z,14.80
2019-05-03T10:28:39.052Z,14.80
2019-05-03T10:31:17.846Z,14.90
2019-05-03T10:34:00.545Z,14.90
2019-05-03T10:36:29.805Z,15.00
2019-05-03T10:38:59.312Z,15.20
2019-05-03T10:41:28.697Z,15.30
2019-05-03T10:43:57.968Z,15.40
2019-05-03T10:46:27.255Z,15.50
2019-05-03T10:48:56.570Z,15.50
2019-05-03T10:51:28.417Z,15.40
2019-05-03T10:53:59.835Z,15.30
2019-05-03T10:56:39.202Z,15.20
2019-05-03T10:59:09.418Z,15.10
2019-05-03T11:01:54.516Z,15.00
2019-05-03T11:04:24.371Z,15.10
2019-05-03T11:06:55.125Z,15.00
2019-05-03T11:09:25.957Z,15.00
2019-05-03T11:11:55.619Z,14.90
2019-05-03T11:14:25.515Z,14.80
2019-05-03T11:16:55.401Z,14.60
2019-05-03T11:19:25.401Z,14.40
2019-05-03T11:21:54.989Z,14.20
2019-05-03T11:24:27.200Z,14.10
2019-05-03T11:27:00.052Z,14.10
2019-05-03T11:29:28.383Z,14.10
2019-05-03T11:32:09.972Z,14.10
2019-05-03T11:34:44.942Z,14.20
2019-05-03T11:37:35.554Z,14.10
2019-05-03T11:40:06.169Z,14.10
2019-05-03T11:42:42.072Z,14.20
2019-05-03T11:45:12.044Z,14.40
2019-05-03T11:47:41.312Z,14.70
2019-05-03T11:50:10.954Z,15.00
2019-05-03T11:52:40.239Z,15.20
2019-05-03T11:55:11.659Z,15.50
2019-05-03T11:57:40.546Z,15.50
2019-05-03T12:00:14.665Z,15.40
2019-05-03T12:03:00.298Z,15.50
2019-05-03T12:05:31.722Z,15.60
2019-05-03T12:08:01.112Z,15.60
2019-05-03T12:10:46.769Z,15.60
2019-05-03T12:13:16.846Z,15.70
2019-05-03T12:15:46.210Z,15.70
2019-05-03T12:18:16.695Z,16.50
2019-05-03T12:20:47.643Z,17.60
2019-05-03T12:23:18.150Z,18.90
2019-05-03T12:25:48.563Z,20.30
2019-05-03T12:28:18.406Z,20.90
2019-05-03T12:30:47.788Z,20.70
2019-05-03T12:33:18.842Z,20.30
2019-05-03T12:35:48.062Z,20.00
2019-05-03T12:38:17.336Z,20.60
2019-05-03T12:40:46.588Z,21.70
2019-05-03T12:43:15.904Z,22.50
2019-05-03T12:45:45.342Z,22.50
2019-05-03T12:48:15.553Z,21.90
2019-05-03T12:50:46.399Z,21.10
2019-05-03T12:53:16.281Z,20.20
2019-05-03T12:55:54.405Z,19.50
2019-05-03T12:58:45.711Z,19.10
2019-05-03T13:01:25.082Z,18.70
2019-05-03T13:04:01.645Z,18.60
2019-05-03T13:06:34.573Z,19.50
2019-05-03T13:09:05.589Z,20.40
2019-05-03T13:11:36.754Z,21.40
2019-05-03T13:14:06.349Z,22.00
2019-05-03T13:16:35.992Z,21.80
2019-05-03T13:19:05.684Z,21.40
2019-05-03T13:21:35.598Z,21.20
2019-05-03T13:24:05.588Z,21.50
2019-05-03T13:26:35.258Z,22.20
2019-05-03T13:29:05.869Z,23.00
2019-05-03T13:31:35.367Z,23.50
2019-05-03T13:34:05.622Z,23.80
2019-05-03T13:36:35.182Z,24.20
2019-05-03T13:39:13.259Z,24.80
2019-05-03T13:41:37.511Z,25.40
2019-05-03T13:44:07.287Z,25.60
2019-05-03T13:46:39.466Z,26.00
2019-05-03T13:49:09.099Z,26.30
2019-05-03T13:51:38.665Z,26.30
2019-05-03T13:54:08.057Z,26.00
2019-05-03T13:56:37.482Z,25.20
2019-05-03T13:59:18.574Z,24.80
2019-05-03T14:01:38.396Z,24.50
2019-05-03T14:04:07.730Z,24.00
2019-05-03T14:06:37.858Z,23.20
2019-05-03T14:09:09.160Z,22.30
2019-05-03T14:11:42.229Z,21.40
2019-05-03T14:14:11.556Z,20.50
2019-05-03T14:16:41.608Z,19.70
2019-05-03T14:19:16.785Z,18.90
2019-05-03T14:21:50.526Z,18.40
2019-05-03T14:24:20.121Z,18.20
2019-05-03T14:26:49.466Z,18.50
2019-05-03T14:29:19.040Z,18.90
2019-05-03T14:31:48.497Z,19.80
2019-05-03T14:34:18.281Z,20.10
2019-05-03T14:36:47.862Z,20.00
2019-05-03T14:39:17.762Z,19.80
2019-05-03T14:41:47.607Z,19.20
2019-05-03T14:44:18.243Z,18.80
2019-05-03T14:46:47.739Z,18.60
2019-05-03T14:49:17.096Z,18.40
2019-05-03T14:51:46.311Z,18.20
2019-05-03T14:54:16.018Z,18.10
2019-05-03T14:56:58.270Z,18.00
2019-05-03T14:59:58.717Z,17.70
2019-05-03T15:02:59.105Z,17.40
2019-05-03T15:05:28.447Z,17.10
2019-05-03T15:07:57.855Z,17.10
2019-05-03T15:10:30.109Z,16.90
2019-05-03T15:13:01.831Z,16.90
2019-05-03T15:15:31.789Z,17.00
2019-05-03T15:18:05.993Z,17.00
2019-05-03T15:20:34.803Z,16.80
2019-05-03T15:23:05.557Z,16.70
2019-05-03T15:25:34.921Z,16.60
2019-05-03T15:28:10.236Z,16.50
2019-05-03T15:30:40.852Z,16.40
2019-05-03T15:33:10.151Z,16.30
2019-05-03T15:35:39.622Z,16.10
2019-05-03T15:38:08.826Z,16.00
2019-05-03T15:40:38.418Z,15.90
2019-05-03T15:43:25.839Z,15.70
2019-05-03T15:46:05.211Z,15.50
2019-05-03T15:48:41.915Z,15.40
2019-05-03T15:51:28.931Z,15.20
2019-05-03T15:53:58.229Z,15.10
2019-05-03T15:56:27.627Z,15.10
2019-05-03T15:58:56.971Z,15.10
2019-05-03T16:01:26.645Z,15.20
2019-05-03T16:03:56.111Z,15.80
2019-05-03T16:06:26.778Z,16.60
2019-05-03T16:08:56.194Z,17.30
2019-05-03T16:11:25.576Z,17.60
2019-05-03T16:13:55.292Z,17.70
2019-05-03T16:16:25.070Z,17.50
2019-05-03T16:18:54.501Z,17.30
2019-05-03T16:21:25.236Z,16.90
2019-05-03T16:24:05.005Z,16.50
2019-05-03T16:26:35.505Z,16.40
2019-05-03T16:29:10.348Z,16.10
2019-05-03T16:31:40.463Z,15.90
2019-05-03T16:34:10.056Z,15.90
2019-05-03T16:36:39.800Z,16.10
2019-05-03T16:39:09.370Z,16.50
2019-05-03T16:41:38.737Z,16.80
2019-05-03T16:44:08.140Z,17.10
2019-05-03T16:46:37.791Z,17.30
2019-05-03T16:49:10.132Z,17.50
2019-05-03T16:51:39.479Z,17.60
2019-05-03T16:54:08.787Z,17.70
2019-05-03T16:56:38.166Z,17.80
2019-05-03T16:59:07.363Z,17.90
2019-05-03T17:01:37.212Z,17.90
2019-05-03T17:04:25.168Z,18.00
2019-05-03T17:07:07.647Z,18.00
2019-05-03T17:09:44.048Z,18.00
2019-05-03T17:12:25.522Z,17.90
2019-05-03T17:14:57.006Z,17.60
2019-05-03T17:17:26.692Z,17.30
2019-05-03T17:19:56.650Z,17.20
2019-05-03T17:22:26.024Z,17.00
2019-05-03T17:24:55.315Z,16.90
2019-05-03T17:27:25.592Z,16.80
2019-05-03T17:29:55.381Z,16.70
2019-05-03T17:32:24.916Z,16.70
2019-05-03T17:34:55.039Z,16.50
2019-05-03T17:37:25.689Z,16.20
2019-05-03T17:40:20.681Z,15.90
2019-05-03T17:43:09.038Z,15.70
2019-05-03T17:45:42.501Z,15.50
2019-05-03T17:48:12.274Z,15.20
2019-05-03T17:50:41.632Z,15.00
2019-05-03T17:53:35.997Z,14.80
2019-05-03T17:56:15.159Z,14.60
2019-05-03T17:58:59.575Z,14.50
2019-05-03T18:01:59.843Z,14.30
2019-05-03T18:05:00.195Z,14.20
2019-05-03T18:07:55.019Z,14.00
2019-05-03T18:10:27.593Z,13.90
2019-05-03T18:12:57.105Z,13.70
2019-05-03T18:15:28.139Z,13.60
2019-05-03T18:17:57.564Z,13.60
2019-05-03T18:20:28.904Z,13.50
2019-05-03T18:22:59.129Z,13.40
2019-05-03T18:25:28.785Z,13.40
2019-05-03T18:28:00.114Z,13.40
2019-05-03T18:30:30.922Z,13.40
2019-05-03T18:33:04.736Z,13.40
2019-05-03T18:35:35.636Z,13.30
2019-05-03T18:38:05.841Z,13.30
2019-05-03T18:40:36.112Z,13.20
2019-05-03T18:43:11.370Z,13.20
2019-05-03T18:45:58.858Z,13.10
2019-05-03T18:48:29.744Z,13.10
2019-05-03T18:51:00.276Z,13.00
2019-05-03T18:53:29.775Z,12.90
2019-05-03T18:55:59.616Z,12.80
2019-05-03T18:58:29.380Z,12.70
2019-05-03T19:01:02.754Z,12.70
2019-05-03T19:03:32.358Z,12.60
2019-05-03T19:06:05.642Z,12.50
2019-05-03T19:09:14.474Z,12.50
2019-05-03T19:11:57.330Z,12.40
2019-05-03T19:14:28.748Z,12.40
2019-05-03T19:17:19.928Z,12.30
2019-05-03T19:19:51.542Z,12.30
2019-05-03T19:22:24.858Z,12.20
2019-05-03T19:24:53.756Z,12.20
2019-05-03T19:27:24.986Z,12.10
2019-05-03T19:29:55.546Z,12.10
2019-05-03T19:32:31.522Z,12.00
2019-05-03T19:35:02.257Z,12.10
2019-05-03T19:37:40.791Z,12.00
2019-05-03T19:40:10.593Z,12.00
2019-05-03T19:42:40.777Z,12.00
2019-05-03T19:45:15.131Z,12.00
2019-05-03T19:47:44.748Z,12.00
2019-05-03T19:50:15.751Z,12.00
2019-05-03T19:53:16.605Z,12.00
2019-05-03T19:55:50.347Z,12.00
2019-05-03T19:58:17.222Z,12.00
2019-05-03T20:01:02.381Z,12.00
2019-05-03T20:03:38.612Z,12.00
2019-05-03T20:06:17.041Z,12.00
2019-05-03T20:08:51.295Z,12.00
2019-05-03T20:11:20.667Z,12.00
2019-05-03T20:13:50.039Z,12.00
2019-05-03T20:16:19.576Z,12.00
2019-05-03T20:18:48.891Z,12.00
2019-05-03T20:21:18.299Z,12.00
2019-05-03T20:23:48.051Z,11.90
2019-05-03T20:26:17.388Z,11.90
2019-05-03T20:28:46.809Z,11.90
2019-05-03T20:31:16.187Z,11.80
2019-05-03T20:33:45.843Z,11.80
2019-05-03T20:36:16.715Z,11.80
2019-05-03T20:38:46.520Z,11.70
2019-05-03T20:41:15.912Z,11.70
2019-05-03T20:44:01.166Z,11.70
2019-05-03T20:46:51.592Z,11.70
2019-05-03T20:49:21.074Z,11.70
2019-05-03T20:51:51.416Z,11.70
2019-05-03T20:54:20.882Z,11.70
2019-05-03T20:56:50.243Z,11.60
2019-05-03T20:59:19.936Z,11.70
2019-05-03T21:01:49.622Z,11.60
2019-05-03T21:04:18.923Z,11.70
2019-05-03T21:06:48.369Z,11.70
2019-05-03T21:09:17.743Z,11.60
2019-05-03T21:11:47.075Z,11.70
2019-05-03T21:14:16.480Z,11.70
2019-05-03T21:17:16.654Z,11.70
2019-05-03T21:19:55.187Z,11.70
2019-05-03T21:22:39.371Z,11.60
2019-05-03T21:25:30.865Z,11.60
2019-05-03T21:28:00.137Z,11.60
2019-05-03T21:30:29.423Z,11.60
2019-05-03T21:32:59.455Z,11.60
2019-05-03T21:35:40.964Z,11.60
2019-05-03T21:38:01.235Z,11.60
2019-05-03T21:40:31.319Z,11.60
2019-05-03T21:43:01.051Z,11.60
2019-05-03T21:45:39.975Z,11.60
2019-05-03T21:48:14.625Z,11.60
2019-05-03T21:50:44.715Z,11.60
2019-05-03T21:53:15.322Z,11.50
2019-05-03T21:55:45.295Z,11.40
2019-05-03T21:58:16.573Z,11.30
2019-05-03T22:01:08.225Z,11.10
2019-05-03T22:03:38.023Z,11.00
2019-05-03T22:06:08.211Z,10.90
2019-05-03T22:08:37.483Z,10.70
2019-05-03T22:11:06.696Z,10.60
2019-05-03T22:13:36.755Z,10.50
2019-05-03T22:16:12.712Z,10.50
2019-05-03T22:18:42.952Z,10.40
2019-05-03T22:21:25.750Z,10.30
2019-05-03T22:24:14.799Z,10.30
2019-05-03T22:27:08.189Z,10.30
2019-05-03T22:29:38.012Z,10.30
2019-05-03T22:32:07.927Z,10.30
2019-05-03T22:34:37.646Z,10.40
2019-05-03T22:37:07.371Z,10.40
2019-05-03T22:39:42.872Z,10.40
2019-05-03T22:42:12.150Z,10.40
2019-05-03T22:44:41.408Z,10.40
2019-05-03T22:47:10.783Z,10.50
2019-05-03T22:49:40.791Z,10.50
2019-05-03T22:52:11.870Z,10.40
2019-05-03T22:54:41.232Z,10.40
2019-05-03T22:57:10.563Z,10.40
2019-05-03T22:59:39.978Z,10.50
2019-05-03T23:02:09.550Z,10.40
2019-05-03T23:04:38.862Z,10.40
2019-05-03T23:07:08.062Z,10.40
2019-05-03T23:09:37.472Z,10.40
2019-05-03T23:12:07.646Z,10.40
2019-05-03T23:14:37.724Z,10.40
2019-05-03T23:17:08.342Z,10.30
2019-05-03T23:19:39.593Z,10.30
2019-05-03T23:22:16.871Z,10.30
2019-05-03T23:24:46.180Z,10.30
2019-05-03T23:27:18.865Z,10.30
2019-05-03T23:29:48.547Z,10.20
2019-05-03T23:32:17.789Z,10.20
2019-05-03T23:34:47.003Z,10.20
2019-05-03T23:37:16.594Z,10.20
2019-05-03T23:39:46.699Z,10.20
2019-05-03T23:42:15.971Z,10.20
2019-05-03T23:44:45.728Z,10.20
2019-05-03T23:47:46.719Z,10.20
2019-05-03T23:50:18.973Z,10.20
2019-05-03T23:52:48.339Z,10.20
2019-05-03T23:55:36.683Z,10.10
2019-05-03T23:58:06.025Z,10.10
